createdAt,value
2023-05-13T00:00:57.732Z,59.99
2023-05-13T00:05:59.816Z,60.02
2023-05-13T00:11:01.836Z,60.20
2023-05-13T00:16:03.877Z,60.27
2023-05-13T00:21:06.191Z,60.43
2023-05-13T00:26:08.121Z,60.86
2023-05-13T00:31:10.407Z,60.77
2023-05-13T00:36:12.446Z,61.63
2023-05-13T00:41:14.428Z,62.12
2023-05-13T00:46:16.541Z,62.61
2023-05-13T00:51:18.738Z,62.10
2023-05-13T00:56:21.975Z,62.08
2023-05-13T01:01:51.497Z,62.61
2023-05-13T01:07:28.822Z,62.57
2023-05-13T01:12:36.850Z,62.55
2023-05-13T01:17:50.554Z,62.67
2023-05-13T01:22:52.581Z,62.89
2023-05-13T01:27:54.708Z,62.95
2023-05-13T01:32:56.924Z,63.27
2023-05-13T01:38:00.596Z,63.37
2023-05-13T01:43:02.457Z,63.61
2023-05-13T01:48:04.983Z,63.79
2023-05-13T01:53:16.880Z,63.89
2023-05-13T01:58:21.156Z,64.56
2023-05-13T02:03:23.170Z,65.05
2023-05-13T02:08:25.425Z,65.19
2023-05-13T02:13:27.273Z,65.49
2023-05-13T02:18:29.089Z,65.13
2023-05-13T02:23:30.811Z,65.36
2023-05-13T02:28:32.488Z,66.02
2023-05-13T02:33:34.281Z,66.70
2023-05-13T02:38:36.121Z,67.26
2023-05-13T02:43:38.240Z,67.55
2023-05-13T02:48:40.465Z,67.55
2023-05-13T02:53:42.228Z,68.05
2023-05-13T02:58:45.031Z,68.06
2023-05-13T03:03:47.284Z,68.24
2023-05-13T03:08:49.027Z,68.23
2023-05-13T03:13:50.764Z,67.54
2023-05-13T03:18:52.525Z,67.11
2023-05-13T03:23:54.744Z,66.83
2023-05-13T03:28:56.475Z,66.20
2023-05-13T03:33:58.639Z,66.12
2023-05-13T03:39:00.654Z,65.32
2023-05-13T03:44:02.971Z,64.06
2023-05-13T03:49:04.821Z,63.59
2023-05-13T03:54:06.647Z,62.74
2023-05-13T03:59:08.384Z,62.30
2023-05-13T04:04:11.044Z,61.55
2023-05-13T04:09:12.727Z,61.60
2023-05-13T04:14:14.478Z,61.41
2023-05-13T04:19:18.411Z,61.43
2023-05-13T04:24:20.111Z,61.18
2023-05-13T04:29:24.013Z,61.06
2023-05-13T04:34:26.006Z,60.86
2023-05-13T04:39:27.803Z,60.74
2023-05-13T04:44:30.003Z,60.59
2023-05-13T04:49:32.043Z,60.64
2023-05-13T04:54:36.007Z,60.87
2023-05-13T04:59:37.928Z,60.84
2023-05-13T05:04:41.617Z,60.77
2023-05-13T05:09:48.113Z,60.93
2023-05-13T05:14:49.913Z,61.05
2023-05-13T05:19:51.768Z,61.31
2023-05-13T05:24:53.693Z,60.99
2023-05-13T05:29:55.467Z,60.55
2023-05-13T05:34:57.617Z,60.38
2023-05-13T05:39:59.435Z,60.34
2023-05-13T05:45:01.885Z,60.09
2023-05-13T05:50:04.411Z,60.31
2023-05-13T05:55:07.190Z,60.00
2023-05-13T06:00:09.436Z,59.91
2023-05-13T06:05:17.020Z,59.26
2023-05-13T06:10:20.029Z,58.82
2023-05-13T06:15:23.108Z,57.51
2023-05-13T06:20:24.894Z,55.71
2023-05-13T06:25:26.666Z,54.88
2023-05-13T06:30:28.418Z,54.43
2023-05-13T06:35:30.462Z,54.03
2023-05-13T06:40:33.320Z,53.70
2023-05-13T06:45:35.446Z,53.15
2023-05-13T06:50:37.323Z,50.43
2023-05-13T06:55:41.828Z,45.83
2023-05-13T07:00:44.228Z,40.34
2023-05-13T07:05:46.216Z,36.32
2023-05-13T07:10:47.897Z,33.79
2023-05-13T07:15:49.990Z,31.60
2023-05-13T07:20:52.478Z,29.09
2023-05-13T07:25:54.216Z,26.23
2023-05-13T07:30:56.070Z,24.43
2023-05-13T07:35:57.913Z,24.00
2023-05-13T07:40:59.665Z,22.53
2023-05-13T07:46:03.276Z,22.37
2023-05-13T07:51:05.241Z,22.02
2023-05-13T07:56:07.879Z,21.45
2023-05-13T08:01:09.578Z,21.31
2023-05-13T08:06:11.520Z,21.60
2023-05-13T08:11:13.717Z,21.16
2023-05-13T08:16:15.380Z,20.93
2023-05-13T08:21:17.238Z,20.76
2023-05-13T08:26:19.232Z,21.63
2023-05-13T08:31:20.962Z,21.52
2023-05-13T08:36:23.314Z,21.80
2023-05-13T08:41:25.059Z,21.36
2023-05-13T08:46:32.889Z,21.28
2023-05-13T08:51:34.686Z,21.52
2023-05-13T08:56:37.225Z,21.75
2023-05-13T09:01:39.516Z,23.28
2023-05-13T09:06:41.352Z,25.28
2023-05-13T09:11:44.728Z,26.50
2023-05-13T09:16:47.717Z,26.99
2023-05-13T09:21:49.656Z,27.04
2023-05-13T09:26:51.802Z,27.21
2023-05-13T09:31:59.483Z,28.48
2023-05-13T09:37:02.476Z,28.66
2023-05-13T09:42:05.432Z,28.48
2023-05-13T09:47:11.273Z,28.42
2023-05-13T09:52:16.898Z,28.36
2023-05-13T09:57:18.570Z,26.34
2023-05-13T10:02:20.448Z,25.88
2023-05-13T10:07:25.883Z,26.24
2023-05-13T10:12:30.445Z,26.75
2023-05-13T10:17:32.736Z,27.17
2023-05-13T10:22:37.299Z,26.79
2023-05-13T10:27:39.905Z,27.85
2023-05-13T10:32:41.950Z,27.39
2023-05-13T10:37:52.582Z,27.83
2023-05-13T10:43:15.876Z,26.77
2023-05-13T10:48:18.974Z,26.10
2023-05-13T10:53:24.110Z,27.32
2023-05-13T10:58:33.850Z,28.14
2023-05-13T11:03:40.222Z,27.54
2023-05-13T11:08:44.039Z,26.96
2023-05-13T11:13:45.668Z,27.40
2023-05-13T11:18:47.569Z,28.29
2023-05-13T11:24:04.188Z,28.66
2023-05-13T11:29:06.538Z,27.96
2023-05-13T11:34:16.642Z,28.19
2023-05-13T11:39:21.461Z,28.71
2023-05-13T11:44:25.866Z,28.46
2023-05-13T11:49:37.035Z,28.07
2023-05-13T11:54:48.475Z,28.14
2023-05-13T12:00:02.337Z,27.75
2023-05-13T12:05:07.195Z,27.90
2023-05-13T12:10:09.379Z,28.93
2023-05-13T12:15:22.237Z,28.58
2023-05-13T12:20:25.217Z,29.41
2023-05-13T12:25:44.110Z,29.77
2023-05-13T12:30:57.085Z,29.76
2023-05-13T12:36:21.760Z,30.30
2023-05-13T12:41:25.898Z,30.42
2023-05-13T12:46:28.080Z,29.82
2023-05-13T12:51:30.675Z,29.54
2023-05-13T12:56:32.480Z,29.43
2023-05-13T13:01:34.970Z,28.94
2023-05-13T13:06:36.869Z,28.96
2023-05-13T13:11:39.293Z,29.15
2023-05-13T13:16:43.881Z,29.08
2023-05-13T13:21:45.534Z,28.83
2023-05-13T13:26:47.277Z,29.67
2023-05-13T13:31:49.164Z,29.83
2023-05-13T13:36:50.989Z,29.78
2023-05-13T13:41:52.736Z,30.18
2023-05-13T13:46:54.454Z,30.14
2023-05-13T13:51:56.340Z,30.52
2023-05-13T13:56:58.452Z,30.90
2023-05-13T14:02:00.264Z,30.79
2023-05-13T14:07:02.046Z,31.18
2023-05-13T14:12:04.167Z,31.34
2023-05-13T14:17:05.891Z,31.59
2023-05-13T14:22:07.524Z,31.56
2023-05-13T14:27:09.329Z,31.88
2023-05-13T14:32:11.031Z,31.76
2023-05-13T14:37:12.787Z,32.19
2023-05-13T14:42:14.843Z,32.78
2023-05-13T14:47:16.547Z,33.01
2023-05-13T14:52:18.111Z,32.48
2023-05-13T14:57:20.144Z,32.45
2023-05-13T15:02:22.098Z,32.70
2023-05-13T15:07:23.929Z,32.84
2023-05-13T15:12:26.324Z,33.28
2023-05-13T15:17:29.757Z,33.55
2023-05-13T15:22:33.350Z,33.89
2023-05-13T15:27:35.991Z,34.16
2023-05-13T15:32:37.666Z,34.64
2023-05-13T15:37:42.654Z,35.17
2023-05-13T15:42:44.698Z,34.86
2023-05-13T15:47:46.514Z,35.16
2023-05-13T15:52:48.300Z,35.37
2023-05-13T15:57:50.794Z,35.46
2023-05-13T16:02:52.503Z,35.86
2023-05-13T16:07:54.482Z,35.76
2023-05-13T16:12:56.025Z,36.23
2023-05-13T16:17:57.790Z,36.45
2023-05-13T16:22:59.553Z,36.81
2023-05-13T16:28:01.437Z,36.94
2023-05-13T16:33:03.629Z,37.48
2023-05-13T16:38:05.388Z,37.95
2023-05-13T16:43:07.444Z,38.38
2023-05-13T16:48:09.118Z,38.60
2023-05-13T16:53:11.012Z,38.62
2023-05-13T16:58:12.748Z,38.96
2023-05-13T17:03:14.673Z,39.08
2023-05-13T17:08:18.942Z,38.97
2023-05-13T17:13:21.309Z,39.31
2023-05-13T17:18:22.931Z,39.24
2023-05-13T17:23:24.549Z,39.43
2023-05-13T17:28:26.256Z,39.51
2023-05-13T17:33:28.140Z,40.01
2023-05-13T17:38:29.914Z,39.95
2023-05-13T17:43:31.692Z,40.13
2023-05-13T17:48:33.449Z,40.18
2023-05-13T17:53:35.379Z,40.70
2023-05-13T17:58:37.267Z,40.96
2023-05-13T18:03:38.909Z,41.32
2023-05-13T18:08:40.839Z,41.59
2023-05-13T18:13:42.409Z,41.96
2023-05-13T18:18:44.434Z,42.24
2023-05-13T18:23:46.627Z,42.84
2023-05-13T18:28:48.415Z,43.23
2023-05-13T18:33:50.160Z,43.70
2023-05-13T18:38:52.026Z,43.89
2023-05-13T18:43:53.851Z,44.34
2023-05-13T18:48:55.708Z,45.01
2023-05-13T18:53:57.404Z,45.35
2023-05-13T18:58:59.034Z,45.48
2023-05-13T19:04:01.097Z,45.73
2023-05-13T19:09:02.940Z,46.35
2023-05-13T19:14:04.621Z,46.52
2023-05-13T19:19:06.288Z,46.96
2023-05-13T19:24:08.068Z,46.96
2023-05-13T19:29:10.879Z,47.81
2023-05-13T19:34:14.482Z,48.15
2023-05-13T19:39:16.280Z,48.19
2023-05-13T19:44:19.171Z,48.50
2023-05-13T19:49:20.822Z,48.99
2023-05-13T19:54:22.454Z,49.27
2023-05-13T19:59:24.262Z,49.66
2023-05-13T20:04:25.967Z,49.45
2023-05-13T20:09:27.637Z,49.58
2023-05-13T20:14:51.923Z,50.32
2023-05-13T20:19:54.731Z,52.21
2023-05-13T20:24:56.410Z,53.38
2023-05-13T20:30:00.061Z,55.04
2023-05-13T20:35:02.054Z,55.73
2023-05-13T20:40:04.632Z,56.33
2023-05-13T20:45:08.607Z,56.61
2023-05-13T20:50:11.106Z,56.73
2023-05-13T20:55:15.388Z,57.25
2023-05-13T21:00:17.524Z,57.62
2023-05-13T21:05:19.323Z,57.78
2023-05-13T21:10:22.341Z,57.68
2023-05-13T21:15:32.519Z,58.04
2023-05-13T21:20:34.229Z,58.68
2023-05-13T21:25:36.326Z,58.67
2023-05-13T21:30:38.024Z,58.72
2023-05-13T21:35:39.775Z,58.92
2023-05-13T21:40:43.412Z,58.89
2023-05-13T21:45:47.935Z,58.68
2023-05-13T21:50:50.937Z,59.04
2023-05-13T21:55:55.598Z,60.02
2023-05-13T22:01:00.199Z,60.02
2023-05-13T22:06:02.942Z,61.22
2023-05-13T22:11:04.570Z,62.04
2023-05-13T22:16:06.339Z,63.63
2023-05-13T22:21:08.086Z,64.89
2023-05-13T22:26:10.119Z,65.82
2023-05-13T22:31:11.827Z,66.34
2023-05-13T22:36:13.964Z,66.17
2023-05-13T22:41:15.744Z,65.97
2023-05-13T22:46:17.544Z,66.06
2023-05-13T22:51:19.287Z,66.41
2023-05-13T22:56:21.972Z,66.95
2023-05-13T23:01:23.771Z,67.96
2023-05-13T23:06:28.693Z,67.68
2023-05-13T23:11:32.528Z,67.74
2023-05-13T23:16:36.185Z,67.37
2023-05-13T23:21:37.991Z,67.69
2023-05-13T23:26:39.766Z,67.65
2023-05-13T23:31:41.521Z,67.72
2023-05-13T23:36:43.288Z,67.49
2023-05-13T23:41:45.659Z,67.89
2023-05-13T23:46:50.500Z,67.66
2023-05-13T23:52:02.726Z,67.93
2023-05-13T23:57:04.508Z,68.38
